createdAt,value
2018-05-29T00:01:30.476Z,16.23
2018-05-29T00:04:40.705Z,16.02
2018-05-29T00:07:51.001Z,17.33
2018-05-29T00:11:01.141Z,16.25
2018-05-29T00:14:12.555Z,16.95
2018-05-29T00:17:22.770Z,16.12
2018-05-29T00:20:32.664Z,16.37
2018-05-29T00:23:43.285Z,16.87
2018-05-29T00:26:53.025Z,17.70
2018-05-29T00:30:02.496Z,15.73
2018-05-29T00:33:13.580Z,15.80
2018-05-29T00:36:23.920Z,17.40
2018-05-29T00:39:33.762Z,16.83
2018-05-29T00:42:44.664Z,16.75
2018-05-29T00:45:54.656Z,18.05
2018-05-29T00:49:04.940Z,17.90
2018-05-29T00:52:16.093Z,18.55
2018-05-29T00:55:37.576Z,17.73
2018-05-29T00:58:47.742Z,17.40
2018-05-29T01:01:57.656Z,17.95
2018-05-29T01:05:07.613Z,19.20
2018-05-29T01:08:17.981Z,17.33
2018-05-29T01:11:29.336Z,19.48
2018-05-29T01:14:38.820Z,18.45
2018-05-29T01:17:48.463Z,19.80
2018-05-29T01:20:57.837Z,18.55
2018-05-29T01:24:07.445Z,20.02
2018-05-29T01:27:17.833Z,19.73
2018-05-29T01:30:27.908Z,19.05
2018-05-29T01:33:37.920Z,20.02
2018-05-29T01:36:47.359Z,20.65
2018-05-29T01:39:56.801Z,23.05
2018-05-29T01:43:06.682Z,20.65
2018-05-29T01:46:19.097Z,20.77
2018-05-29T01:49:28.463Z,21.95
2018-05-29T01:52:38.451Z,21.92
2018-05-29T01:55:48.424Z,20.27
2018-05-29T01:58:57.917Z,21.17
2018-05-29T02:02:08.123Z,21.33
2018-05-29T02:05:20.217Z,24.25
2018-05-29T02:08:30.685Z,22.70
2018-05-29T02:11:40.022Z,24.75
2018-05-29T02:14:50.228Z,23.20
2018-05-29T02:18:00.486Z,23.87
2018-05-29T02:21:09.977Z,24.85
2018-05-29T02:24:21.275Z,25.67
2018-05-29T02:27:30.744Z,24.37
2018-05-29T02:30:41.016Z,27.58
2018-05-29T02:33:51.584Z,25.40
2018-05-29T02:37:00.875Z,22.77
2018-05-29T02:40:10.558Z,25.37
2018-05-29T02:43:21.353Z,26.50
2018-05-29T02:46:31.881Z,26.45
2018-05-29T02:49:41.642Z,25.77
2018-05-29T02:52:51.744Z,25.20
2018-05-29T02:56:01.313Z,26.35
2018-05-29T02:59:10.803Z,26.48
2018-05-29T03:02:22.424Z,27.37
2018-05-29T03:05:33.488Z,25.73
2018-05-29T03:08:43.684Z,28.17
2018-05-29T03:11:53.556Z,26.83
2018-05-29T03:15:03.416Z,30.67
2018-05-29T03:18:16.091Z,25.83
2018-05-29T03:21:25.847Z,27.37
2018-05-29T03:24:35.735Z,24.48
2018-05-29T03:27:45.848Z,29.25
2018-05-29T03:30:55.296Z,29.77
2018-05-29T03:34:04.984Z,27.50
2018-05-29T03:37:15.132Z,28.83
2018-05-29T03:40:25.440Z,28.17
2018-05-29T03:43:35.226Z,30.05
2018-05-29T03:46:45.518Z,30.92
2018-05-29T03:49:55.015Z,33.42
2018-05-29T03:53:05.116Z,30.30
2018-05-29T03:56:14.990Z,33.88
2018-05-29T03:59:25.220Z,38.35
2018-05-29T04:02:34.653Z,32.45
2018-05-29T04:05:45.106Z,30.33
2018-05-29T04:08:54.741Z,32.10
2018-05-29T04:12:05.100Z,31.87
2018-05-29T04:15:15.269Z,33.03
2018-05-29T04:18:26.112Z,32.28
2018-05-29T04:21:35.900Z,30.65
2018-05-29T04:24:45.608Z,30.58
2018-05-29T04:27:55.826Z,30.62
2018-05-29T04:31:05.191Z,31.17
2018-05-29T04:34:14.549Z,30.85
2018-05-29T04:37:27.165Z,31.55
2018-05-29T04:40:37.529Z,31.90
2018-05-29T04:43:47.000Z,30.60
2018-05-29T04:46:56.970Z,30.73
2018-05-29T04:50:06.685Z,32.20
2018-05-29T04:53:16.198Z,31.33
2018-05-29T04:56:27.689Z,31.70
2018-05-29T04:59:37.569Z,30.00
2018-05-29T05:02:46.897Z,30.85
2018-05-29T05:05:56.449Z,29.83
2018-05-29T05:09:05.968Z,30.48
2018-05-29T05:12:16.049Z,30.80
2018-05-29T05:15:26.393Z,30.70
2018-05-29T05:18:36.461Z,29.33
2018-05-29T05:21:46.031Z,30.95
2018-05-29T05:24:55.470Z,30.40
2018-05-29T05:28:04.968Z,29.02
2018-05-29T05:31:14.416Z,27.58
2018-05-29T05:34:24.680Z,29.37
2018-05-29T05:37:35.252Z,28.67
2018-05-29T05:40:45.155Z,27.60
2018-05-29T05:43:55.028Z,28.08
2018-05-29T05:47:04.407Z,28.20
2018-05-29T05:50:13.749Z,26.85
2018-05-29T05:53:23.673Z,27.13
2018-05-29T05:56:33.923Z,27.55
2018-05-29T05:59:44.259Z,27.13
2018-05-29T06:02:53.596Z,26.70
2018-05-29T06:06:03.188Z,26.12
2018-05-29T06:09:12.596Z,25.37
2018-05-29T06:12:22.066Z,24.48
2018-05-29T06:15:32.772Z,22.90
2018-05-29T06:18:42.200Z,21.98
2018-05-29T06:21:53.163Z,20.52
2018-05-29T06:25:03.477Z,20.67
2018-05-29T06:28:12.933Z,19.33
2018-05-29T06:31:22.456Z,18.55
2018-05-29T06:34:32.632Z,17.85
2018-05-29T06:37:42.218Z,16.58
2018-05-29T06:40:52.464Z,20.77
2018-05-29T06:44:01.917Z,16.10
2018-05-29T06:47:12.281Z,16.80
2018-05-29T06:50:22.593Z,15.93
2018-05-29T06:53:32.610Z,15.32
2018-05-29T06:56:42.129Z,14.98
2018-05-29T06:59:51.557Z,17.52
2018-05-29T07:03:01.776Z,13.62
2018-05-29T07:06:11.725Z,14.05
2018-05-29T07:09:38.553Z,13.62
2018-05-29T07:12:48.300Z,13.10
2018-05-29T07:15:57.680Z,12.32
2018-05-29T07:19:07.857Z,12.80
2018-05-29T07:22:18.049Z,12.20
2018-05-29T07:25:27.557Z,12.15
2018-05-29T07:28:36.809Z,12.75
2018-05-29T07:31:46.866Z,12.77
2018-05-29T07:34:56.861Z,11.57
2018-05-29T07:38:07.124Z,12.77
2018-05-29T07:41:16.458Z,11.45
2018-05-29T07:44:25.804Z,12.13
2018-05-29T07:47:35.149Z,17.23
2018-05-29T07:50:44.648Z,11.25
2018-05-29T07:53:54.178Z,11.07
2018-05-29T07:57:03.917Z,11.05
2018-05-29T08:00:14.137Z,12.43
2018-05-29T08:03:23.854Z,12.90
2018-05-29T08:06:34.073Z,12.55
2018-05-29T08:09:43.943Z,12.40
2018-05-29T08:12:53.416Z,12.02
2018-05-29T08:16:02.896Z,13.23
2018-05-29T08:19:12.651Z,12.37
2018-05-29T08:22:22.824Z,11.63
2018-05-29T08:25:32.654Z,12.75
2018-05-29T08:28:42.033Z,11.90
2018-05-29T08:31:51.285Z,12.85
2018-05-29T08:35:00.813Z,11.77
2018-05-29T08:38:10.976Z,10.77
2018-05-29T08:41:21.128Z,10.48
2018-05-29T08:44:30.434Z,10.50
2018-05-29T08:47:39.895Z,10.30
2018-05-29T08:50:49.352Z,18.60
2018-05-29T08:53:58.733Z,10.93
2018-05-29T08:57:08.291Z,11.57
2018-05-29T09:00:17.746Z,11.23
2018-05-29T09:03:27.032Z,9.52
2018-05-29T09:06:36.552Z,10.00
2018-05-29T09:09:45.840Z,9.10
2018-05-29T09:12:55.228Z,8.73
2018-05-29T09:16:04.654Z,8.50
2018-05-29T09:19:13.966Z,8.73
2018-05-29T09:22:23.329Z,7.97
2018-05-29T09:25:33.453Z,7.97
2018-05-29T09:28:42.762Z,7.75
2018-05-29T09:31:52.088Z,7.65
2018-05-29T09:35:02.328Z,7.78
2018-05-29T09:38:12.630Z,7.50
2018-05-29T09:41:22.060Z,7.22
2018-05-29T09:44:31.598Z,7.68
2018-05-29T09:47:41.004Z,7.30
2018-05-29T09:50:50.460Z,7.53
2018-05-29T09:53:59.940Z,7.50
2018-05-29T09:57:09.433Z,7.75
2018-05-29T10:00:25.212Z,8.50
2018-05-29T10:03:34.549Z,7.85
2018-05-29T10:06:43.884Z,8.63
2018-05-29T10:09:53.960Z,8.40
2018-05-29T10:13:03.189Z,8.40
2018-05-29T10:16:12.493Z,11.00
2018-05-29T10:19:21.808Z,8.48
2018-05-29T10:22:31.252Z,9.52
2018-05-29T10:25:40.704Z,8.07
2018-05-29T10:28:51.673Z,8.95
2018-05-29T10:32:01.021Z,9.95
2018-05-29T10:35:10.577Z,9.57
2018-05-29T10:38:20.016Z,10.40
2018-05-29T10:41:29.580Z,11.32
2018-05-29T10:44:39.748Z,9.93
2018-05-29T10:47:49.992Z,8.55
2018-05-29T10:50:59.477Z,9.15
2018-05-29T10:54:08.969Z,9.25
2018-05-29T10:57:18.882Z,8.95
2018-05-29T11:00:28.961Z,9.07
2018-05-29T11:03:39.297Z,8.95
2018-05-29T11:06:49.648Z,8.73
2018-05-29T11:09:58.946Z,8.80
2018-05-29T11:13:08.724Z,8.68
2018-05-29T11:16:18.737Z,8.30
2018-05-29T11:19:28.904Z,8.32
2018-05-29T11:22:38.214Z,9.40
2018-05-29T11:25:47.502Z,8.80
2018-05-29T11:28:56.928Z,9.52
2018-05-29T11:32:06.406Z,8.25
2018-05-29T11:35:15.881Z,8.27
2018-05-29T11:38:26.158Z,8.68
2018-05-29T11:41:35.499Z,8.10
2018-05-29T11:44:45.911Z,8.38
2018-05-29T11:47:55.362Z,8.60
2018-05-29T11:51:06.037Z,8.10
2018-05-29T11:54:16.300Z,9.00
2018-05-29T11:57:25.660Z,8.23
2018-05-29T12:00:35.008Z,8.45
2018-05-29T12:03:44.518Z,8.63
2018-05-29T12:06:53.840Z,9.07
2018-05-29T12:10:03.321Z,8.50
2018-05-29T12:13:12.753Z,8.45
2018-05-29T12:16:22.220Z,8.75
2018-05-29T12:19:31.701Z,8.23
2018-05-29T12:22:41.433Z,8.60
2018-05-29T12:25:50.860Z,8.93
2018-05-29T12:29:00.264Z,8.85
2018-05-29T12:32:09.576Z,8.85
2018-05-29T12:35:19.039Z,8.73
2018-05-29T12:38:28.443Z,9.40
2018-05-29T12:41:38.089Z,8.93
2018-05-29T12:44:47.456Z,8.85
2018-05-29T12:47:56.785Z,9.57
2018-05-29T12:51:06.285Z,8.90
2018-05-29T12:54:16.494Z,8.82
2018-05-29T12:57:26.177Z,8.88
2018-05-29T13:00:36.297Z,9.55
2018-05-29T13:03:46.509Z,9.05
2018-05-29T13:06:55.817Z,8.02
2018-05-29T13:10:05.297Z,8.20
2018-05-29T13:13:14.765Z,9.90
2018-05-29T13:16:24.393Z,9.55
2018-05-29T13:19:34.633Z,10.27
2018-05-29T13:22:44.018Z,9.65
2018-05-29T13:25:53.551Z,10.30
2018-05-29T13:29:03.665Z,10.13
2018-05-29T13:32:16.828Z,10.13
2018-05-29T13:35:26.204Z,10.88
2018-05-29T13:38:35.695Z,10.30
2018-05-29T13:41:44.994Z,10.80
2018-05-29T13:44:54.273Z,10.77
2018-05-29T13:48:03.645Z,10.85
2018-05-29T13:51:13.108Z,10.80
2018-05-29T13:54:22.549Z,10.40
2018-05-29T13:57:32.929Z,10.57
2018-05-29T14:00:42.360Z,11.05
2018-05-29T14:03:51.740Z,10.55
2018-05-29T14:07:01.105Z,10.35
2018-05-29T14:10:10.560Z,11.57
2018-05-29T14:13:20.098Z,11.10
2018-05-29T14:16:30.289Z,9.70
2018-05-29T14:19:39.595Z,10.07
2018-05-29T14:22:49.155Z,10.02
2018-05-29T14:25:58.432Z,10.80
2018-05-29T14:29:07.919Z,10.60
2018-05-29T14:32:17.367Z,9.90
2018-05-29T14:35:26.701Z,8.40
2018-05-29T14:38:36.133Z,8.65
2018-05-29T14:41:45.522Z,8.35
2018-05-29T14:44:55.513Z,8.52
2018-05-29T14:48:04.961Z,8.25
2018-05-29T14:51:14.412Z,7.68
2018-05-29T14:54:23.887Z,8.20
2018-05-29T14:57:33.381Z,7.95
2018-05-29T15:00:42.832Z,8.82
2018-05-29T15:03:52.527Z,8.98
2018-05-29T15:07:01.721Z,8.27
2018-05-29T15:10:12.396Z,8.93
2018-05-29T15:13:21.860Z,8.98
2018-05-29T15:16:31.409Z,26.80
2018-05-29T15:19:40.859Z,8.98
2018-05-29T15:22:50.631Z,9.32
2018-05-29T15:26:00.920Z,8.55
2018-05-29T15:29:11.717Z,9.35
2018-05-29T15:32:21.541Z,9.57
2018-05-29T15:35:30.815Z,9.77
2018-05-29T15:38:40.381Z,10.48
2018-05-29T15:41:50.621Z,9.00
2018-05-29T15:45:00.001Z,10.07
2018-05-29T15:48:10.097Z,9.95
2018-05-29T15:51:20.424Z,9.32
2018-05-29T15:54:30.271Z,9.60
2018-05-29T15:57:40.725Z,10.55
2018-05-29T16:00:51.786Z,10.20
2018-05-29T16:04:01.360Z,11.05
2018-05-29T16:07:15.806Z,10.60
2018-05-29T16:10:25.457Z,10.85
2018-05-29T16:13:35.807Z,10.80
2018-05-29T16:16:45.733Z,10.88
2018-05-29T16:19:56.033Z,10.38
2018-05-29T16:23:06.070Z,10.50
2018-05-29T16:26:16.198Z,11.05
2018-05-29T16:29:25.640Z,9.98
2018-05-29T16:32:35.316Z,9.88
2018-05-29T16:35:45.258Z,10.13
2018-05-29T16:38:55.008Z,10.35
2018-05-29T16:42:04.422Z,10.20
2018-05-29T16:45:18.002Z,10.38
2018-05-29T16:48:27.601Z,9.05
2018-05-29T16:51:38.761Z,9.18
2018-05-29T16:54:48.628Z,8.82
2018-05-29T16:57:59.319Z,9.07
2018-05-29T17:01:08.570Z,8.13
2018-05-29T17:04:19.461Z,7.68
2018-05-29T17:07:29.083Z,7.32
2018-05-29T17:10:39.023Z,7.50
2018-05-29T17:13:49.129Z,7.82
2018-05-29T17:16:59.768Z,8.02
2018-05-29T17:20:10.274Z,8.15
2018-05-29T17:23:20.682Z,9.05
2018-05-29T17:26:30.165Z,10.30
2018-05-29T17:29:40.454Z,11.23
2018-05-29T17:32:49.956Z,9.63
2018-05-29T17:36:00.028Z,9.45
2018-05-29T17:39:10.311Z,10.18
2018-05-29T17:42:19.917Z,8.98
2018-05-29T17:45:30.065Z,10.60
2018-05-29T17:48:39.711Z,9.80
2018-05-29T17:51:49.680Z,11.35
2018-05-29T17:55:01.152Z,9.40
2018-05-29T17:58:11.060Z,9.30
2018-05-29T18:01:20.711Z,9.60
2018-05-29T18:04:31.694Z,9.57
2018-05-29T18:07:41.394Z,9.98
2018-05-29T18:10:51.205Z,10.02
2018-05-29T18:14:01.328Z,11.00
2018-05-29T18:17:12.100Z,13.20
2018-05-29T18:20:22.024Z,13.38
2018-05-29T18:23:33.612Z,13.85
2018-05-29T18:26:46.841Z,15.80
2018-05-29T18:30:01.457Z,15.38
2018-05-29T18:33:12.683Z,15.63
2018-05-29T18:36:24.312Z,15.40
2018-05-29T18:39:36.538Z,15.77
2018-05-29T18:42:46.456Z,16.98
2018-05-29T18:45:56.408Z,15.77
2018-05-29T18:49:08.479Z,16.10
2018-05-29T18:52:18.128Z,15.63
2018-05-29T18:55:28.185Z,16.27
2018-05-29T18:58:39.400Z,14.70
2018-05-29T19:01:49.872Z,15.02
2018-05-29T19:05:00.091Z,15.10
2018-05-29T19:08:10.548Z,13.45
2018-05-29T19:11:25.799Z,11.20
2018-05-29T19:14:35.623Z,10.32
2018-05-29T19:17:45.606Z,9.77
2018-05-29T19:20:57.153Z,10.02
2018-05-29T19:24:08.613Z,9.38
2018-05-29T19:27:18.682Z,9.88
2018-05-29T19:30:28.550Z,9.55
2018-05-29T19:33:38.425Z,9.02
2018-05-29T19:36:49.907Z,9.85
2018-05-29T19:39:59.771Z,9.63
2018-05-29T19:43:09.861Z,9.82
2018-05-29T19:46:19.282Z,9.95
2018-05-29T19:49:29.948Z,9.65
2018-05-29T19:52:39.263Z,10.50
2018-05-29T19:55:48.936Z,10.85
2018-05-29T19:58:59.481Z,11.48
2018-05-29T20:02:10.191Z,9.35
2018-05-29T20:05:20.085Z,9.90
2018-05-29T20:08:30.161Z,10.63
2018-05-29T20:11:40.419Z,9.75
2018-05-29T20:14:49.879Z,10.68
2018-05-29T20:18:00.028Z,10.40
2018-05-29T20:21:10.605Z,15.90
2018-05-29T20:24:20.225Z,11.12
2018-05-29T20:27:30.073Z,10.70
2018-05-29T20:30:40.272Z,10.70
2018-05-29T20:33:50.101Z,11.07
2018-05-29T20:37:01.003Z,12.07
2018-05-29T20:40:13.721Z,12.70
2018-05-29T20:43:23.829Z,12.32
2018-05-29T20:46:33.198Z,12.95
2018-05-29T20:49:42.661Z,11.90
2018-05-29T20:52:52.180Z,13.32
2018-05-29T20:56:01.940Z,12.88
2018-05-29T20:59:12.127Z,12.80
2018-05-29T21:02:21.501Z,12.20
2018-05-29T21:05:32.027Z,10.50
2018-05-29T21:08:42.072Z,11.15
2018-05-29T21:11:51.616Z,10.10
2018-05-29T21:15:02.874Z,9.13
2018-05-29T21:18:13.832Z,10.40
2018-05-29T21:21:24.158Z,11.43
2018-05-29T21:24:34.021Z,10.27
2018-05-29T21:27:44.221Z,10.40
2018-05-29T21:30:54.540Z,11.32
2018-05-29T21:34:04.026Z,11.93
2018-05-29T21:37:14.252Z,11.35
2018-05-29T21:40:23.860Z,10.90
2018-05-29T21:43:33.685Z,11.15
2018-05-29T21:46:43.996Z,14.23
2018-05-29T21:49:54.132Z,13.80
2018-05-29T21:53:03.950Z,14.35
2018-05-29T21:56:14.777Z,13.68
2018-05-29T21:59:25.069Z,14.25
2018-05-29T22:02:34.811Z,13.82
2018-05-29T22:05:44.973Z,13.52
2018-05-29T22:08:55.086Z,17.00
2018-05-29T22:12:05.622Z,19.25
2018-05-29T22:15:16.243Z,19.10
2018-05-29T22:18:25.768Z,20.58
2018-05-29T22:21:35.885Z,20.25
2018-05-29T22:24:46.600Z,19.30
2018-05-29T22:27:55.998Z,23.83
2018-05-29T22:31:06.169Z,16.70
2018-05-29T22:34:17.258Z,15.10
2018-05-29T22:37:26.688Z,16.58
2018-05-29T22:40:37.069Z,16.67
2018-05-29T22:43:46.520Z,16.92
2018-05-29T22:46:56.868Z,15.32
2018-05-29T22:50:06.316Z,15.70
2018-05-29T22:53:18.130Z,16.67
2018-05-29T22:56:28.042Z,18.17
2018-05-29T22:59:37.898Z,18.25
2018-05-29T23:02:47.207Z,18.75
2018-05-29T23:05:57.420Z,21.33
2018-05-29T23:09:07.656Z,22.77
2018-05-29T23:12:19.457Z,21.75
2018-05-29T23:15:29.504Z,23.42
2018-05-29T23:18:39.203Z,24.30
2018-05-29T23:21:49.166Z,24.58
2018-05-29T23:24:59.401Z,24.92
2018-05-29T23:28:09.690Z,24.73
2018-05-29T23:31:20.348Z,27.70
2018-05-29T23:34:30.340Z,25.20
2018-05-29T23:37:40.256Z,27.10
2018-05-29T23:40:50.496Z,27.08
2018-05-29T23:43:59.924Z,25.02
2018-05-29T23:47:09.738Z,29.08
2018-05-29T23:50:21.134Z,28.52
2018-05-29T23:53:31.110Z,29.35
2018-05-29T23:56:40.465Z,29.85
2018-05-29T23:59:50.296Z,28.27
